Time;durP1;ratioP1;P1;durP2;ratioP2;P2;SDS_P1;SDS_P2;PMS_P1;PMS_P2;Temp;Humidity;BMP_temperature;BMP_pressure;BME280_temperature;BME280_humidity;BME280_pressure;Samples;Min_cycle;Max_cycle;Signal;HPM_P1;HPM_P2
2022/04/16 00:00:22;;;;;;;2.93;2.23;;;13.20;59.20;;;;;;5098026;28;20377;-83
2022/04/16 00:02:47;;;;;;;2.60;2.17;;;13.10;59.00;;;;;;5098176;28;20210;-83
2022/04/16 00:05:14;;;;;;;2.07;1.97;;;12.90;59.40;;;;;;5077036;28;20312;-82
2022/04/16 00:07:43;;;;;;;2.17;2.07;;;13.00;60.00;;;;;;5094573;28;20259;-83
2022/04/16 00:10:09;;;;;;;2.30;2.20;;;12.90;59.60;;;;;;5097414;28;20212;-84
2022/04/16 00:12:35;;;;;;;2.27;2.00;;;12.80;59.90;;;;;;5107899;28;20189;-83
2022/04/16 00:15:01;;;;;;;3.13;2.43;;;12.80;59.90;;;;;;5094991;28;20202;-83
2022/04/16 00:17:27;;;;;;;2.20;2.07;;;12.80;59.80;;;;;;5095329;28;20197;-83
2022/04/16 00:19:52;;;;;;;2.47;2.13;;;12.80;59.90;;;;;;5096049;28;20220;-83
2022/04/16 00:22:19;;;;;;;2.70;2.50;;;12.80;60.50;;;;;;5091507;28;20234;-84
2022/04/16 00:24:47;;;;;;;2.20;2.00;;;12.80;59.80;;;;;;5095199;28;20214;-83
2022/04/16 00:27:12;;;;;;;2.13;2.03;;;12.70;60.30;;;;;;5098352;28;20185;-82
2022/04/16 00:29:39;;;;;;;2.07;1.97;;;12.40;61.00;;;;;;5104319;28;20246;-84
2022/04/16 00:32:05;;;;;;;2.07;1.93;;;12.50;61.30;;;;;;5105812;28;20247;-83
2022/04/16 00:34:32;;;;;;;2.47;2.33;;;12.50;61.20;;;;;;5107161;28;20194;-82
2022/04/16 00:36:58;;;;;;;2.77;1.90;;;12.50;61.40;;;;;;5097343;28;20189;-83
2022/04/16 00:39:24;;;;;;;5.17;2.57;;;12.50;61.20;;;;;;5101103;28;20226;-83
2022/04/16 00:41:50;;;;;;;2.27;2.07;;;12.30;61.60;;;;;;5086127;28;20198;-84
2022/04/16 00:44:19;;;;;;;2.40;2.20;;;12.40;63.60;;;;;;5103255;28;20181;-83
2022/04/16 00:46:48;;;;;;;2.00;1.90;;;12.50;62.60;;;;;;5105661;28;20194;-84
2022/04/16 00:49:14;;;;;;;2.57;2.30;;;12.30;61.80;;;;;;5094704;28;20189;-84
2022/04/16 00:51:44;;;;;;;2.10;2.00;;;12.30;63.10;;;;;;5093198;28;20208;-83
2022/04/16 00:54:10;;;;;;;2.40;2.17;;;12.30;62.20;;;;;;5091266;28;20181;-82
2022/04/16 00:56:36;;;;;;;2.47;1.90;;;12.30;62.00;;;;;;5107197;28;20190;-83
2022/04/16 00:59:04;;;;;;;1.90;1.80;;;12.30;62.10;;;;;;5103901;28;20177;-83
2022/04/16 01:01:30;;;;;;;2.97;2.40;;;12.10;62.60;;;;;;5085149;28;20211;-83
2022/04/16 01:03:56;;;;;;;2.43;2.23;;;12.00;62.90;;;;;;5090214;28;20209;-83
2022/04/16 01:06:22;;;;;;;2.37;2.20;;;12.00;63.40;;;;;;5095928;28;20187;-81
2022/04/16 01:08:48;;;;;;;2.20;2.00;;;12.10;63.30;;;;;;5107761;28;20238;-83
2022/04/16 01:11:15;;;;;;;2.13;2.00;;;12.20;62.60;;;;;;5085880;28;20631;-83
2022/04/16 01:13:47;;;;;;;2.47;2.00;;;12.20;62.80;;;;;;5095407;28;20218;-83
2022/04/16 01:16:13;;;;;;;2.30;2.10;;;12.20;62.40;;;;;;5079540;28;20184;-83
2022/04/16 01:18:46;;;;;;;2.40;2.30;;;12.20;62.90;;;;;;5057696;28;20209;-82
2022/04/16 01:21:13;;;;;;;2.90;2.33;;;12.10;63.90;;;;;;5093616;28;20204;-84
2022/04/16 01:23:39;;;;;;;2.87;2.30;;;12.10;63.00;;;;;;5086964;28;20213;-83
2022/04/16 01:26:05;;;;;;;2.33;1.90;;;12.10;62.90;;;;;;5097166;28;20181;-84
2022/04/16 01:28:31;;;;;;;2.27;2.17;;;12.10;63.30;;;;;;5097975;28;20183;-83
2022/04/16 01:30:56;;;;;;;2.33;2.13;;;12.00;64.50;;;;;;5115849;28;20204;-83
2022/04/16 01:33:23;;;;;;;1.93;1.83;;;12.00;64.00;;;;;;5095420;28;20282;-82
2022/04/16 01:35:56;;;;;;;2.63;2.43;;;12.10;63.80;;;;;;5065184;28;20195;-83
2022/04/16 01:38:25;;;;;;;2.53;2.33;;;11.90;64.00;;;;;;5095328;28;20188;-83
2022/04/16 01:40:57;;;;;;;2.60;2.40;;;11.90;64.00;;;;;;5102475;28;20222;-83
2022/04/16 01:43:23;;;;;;;2.57;2.33;;;11.90;64.40;;;;;;5082800;28;20208;-83
2022/04/16 01:45:50;;;;;;;3.17;2.23;;;11.70;64.90;;;;;;5088318;28;20197;-82
2022/04/16 01:48:19;;;;;;;2.60;2.40;;;11.60;66.80;;;;;;5101045;28;20195;-83
2022/04/16 01:50:48;;;;;;;2.60;2.40;;;11.60;67.20;;;;;;5110007;28;20207;-83
2022/04/16 01:53:15;;;;;;;3.50;2.57;;;11.50;66.10;;;;;;5102074;28;20198;-82
2022/04/16 01:55:41;;;;;;;2.90;2.70;;;11.30;67.10;;;;;;5100778;28;20198;-83
2022/04/16 01:58:06;;;;;;;2.70;2.50;;;11.20;67.50;;;;;;5101777;28;20211;-83
2022/04/16 02:00:33;;;;;;;2.40;2.20;;;11.20;68.00;;;;;;5101008;28;20269;-82
2022/04/16 02:03:00;;;;;;;2.83;2.53;;;11.50;67.20;;;;;;5095481;28;20697;-83
2022/04/16 02:05:26;;;;;;;2.20;2.10;;;11.40;67.00;;;;;;5107003;28;20195;-83
2022/04/16 02:07:51;;;;;;;2.53;2.33;;;11.30;67.40;;;;;;5102072;28;20196;-83
2022/04/16 02:10:17;;;;;;;2.93;2.73;;;11.10;68.60;;;;;;5099722;28;20222;-83
2022/04/16 02:12:44;;;;;;;3.10;2.80;;;11.00;69.10;;;;;;5104956;28;20199;-83
2022/04/16 02:15:10;;;;;;;4.37;2.70;;;11.00;69.20;;;;;;5097214;28;20629;-83
2022/04/16 02:17:37;;;;;;;3.23;2.70;;;10.90;69.60;;;;;;5094739;28;20190;-83
2022/04/16 02:20:07;;;;;;;2.80;2.60;;;10.90;69.70;;;;;;5097473;28;20199;-83
2022/04/16 02:22:44;;;;;;;2.97;2.70;;;10.90;70.10;;;;;;5099846;28;20210;-84
2022/04/16 02:25:11;;;;;;;2.80;2.60;;;10.90;69.80;;;;;;5074431;28;20183;-84
2022/04/16 02:27:37;;;;;;;2.80;2.60;;;11.00;69.70;;;;;;5104120;28;20191;-83
2022/04/16 02:30:11;;;;;;;3.00;2.40;;;10.90;69.80;;;;;;5091668;28;20234;-83
2022/04/16 02:32:53;;;;;;;2.50;2.30;;;10.80;69.90;;;;;;5105224;28;20218;-83
2022/04/16 02:35:19;;;;;;;2.87;2.40;;;10.80;69.60;;;;;;5096420;28;20199;-83
2022/04/16 02:37:46;;;;;;;2.73;2.53;;;10.80;69.70;;;;;;5101067;28;20195;-81
2022/04/16 02:40:13;;;;;;;2.63;2.43;;;10.80;69.80;;;;;;5082035;28;20259;-83
2022/04/16 02:42:41;;;;;;;3.17;2.63;;;10.80;69.70;;;;;;5085150;28;20288;-82
2022/04/16 02:47:54;;;;;;;2.70;2.50;;;10.70;70.40;;;;;;5095295;28;20213;-84
2022/04/16 02:50:21;;;;;;;2.30;2.10;;;10.50;70.70;;;;;;5098630;28;20237;-83
2022/04/16 02:52:47;;;;;;;2.60;2.40;;;10.50;71.20;;;;;;5091222;28;20192;-83
2022/04/16 02:55:15;;;;;;;2.70;2.50;;;10.40;70.90;;;;;;5102947;28;20314;-82
2022/04/16 02:57:42;;;;;;;2.87;2.67;;;10.40;71.00;;;;;;5101305;28;20214;-83
2022/04/16 03:00:10;;;;;;;2.60;2.43;;;10.40;71.40;;;;;;5103469;28;20214;-82
2022/04/16 03:02:37;;;;;;;2.60;2.40;;;10.20;71.80;;;;;;5085319;28;20569;-82
2022/04/16 03:05:09;;;;;;;2.57;2.37;;;10.20;72.40;;;;;;5102198;28;20187;-82
2022/04/16 03:07:38;;;;;;;2.70;2.50;;;10.10;73.20;;;;;;5105923;28;20179;-82
2022/04/16 03:10:05;;;;;;;2.80;2.60;;;10.10;73.20;;;;;;5109755;28;20205;-82
2022/04/16 03:12:48;;;;;;;2.60;2.40;;;10.10;73.00;;;;;;5089680;28;20738;-83
2022/04/16 03:18:00;;;;;;;2.93;2.60;;;10.10;73.40;;;;;;5101739;28;20187;-82
2022/04/16 03:20:27;;;;;;;3.03;2.60;;;10.10;73.40;;;;;;5084809;28;20221;-83
2022/04/16 03:22:53;;;;;;;2.80;2.60;;;9.90;73.30;;;;;;5105151;28;20668;-83
2022/04/16 03:25:19;;;;;;;2.90;2.70;;;9.90;74.20;;;;;;5114953;28;20161;-82
2022/04/16 03:27:45;;;;;;;3.07;2.77;;;9.90;74.30;;;;;;5086877;28;20278;-83
2022/04/16 03:30:11;;;;;;;2.50;2.30;;;9.80;74.20;;;;;;5102121;28;20214;-83
2022/04/16 03:32:45;;;;;;;3.00;2.70;;;9.80;75.20;;;;;;5106666;28;20269;-82
2022/04/16 03:35:14;;;;;;;2.63;2.43;;;9.80;74.70;;;;;;5104078;28;20281;-82
2022/04/16 03:37:39;;;;;;;3.87;3.00;;;9.70;74.90;;;;;;5104052;28;20191;-81
2022/04/16 03:40:06;;;;;;;2.70;2.50;;;9.70;74.90;;;;;;5104000;28;20218;-82
2022/04/16 03:42:32;;;;;;;2.67;2.47;;;9.80;75.50;;;;;;5099876;28;20203;-83
2022/04/16 03:45:00;;;;;;;3.07;2.77;;;9.90;74.70;;;;;;5104216;28;20198;-83
2022/04/16 03:47:27;;;;;;;2.90;2.70;;;10.00;74.30;;;;;;5096621;28;20184;-82
2022/04/16 03:49:53;;;;;;;3.00;2.80;;;10.10;73.20;;;;;;5105873;28;20200;-83
2022/04/16 03:52:19;;;;;;;2.73;2.53;;;10.00;73.70;;;;;;5098405;28;20187;-83
2022/04/16 04:00:14;;;;;;;4.63;2.40;;;9.80;74.90;;;;;;5098944;28;20221;-83
2022/04/16 04:02:39;;;;;;;3.53;2.40;;;9.80;74.60;;;;;;5093119;28;20222;-83
2022/04/16 04:05:06;;;;;;;2.70;2.50;;;9.70;75.00;;;;;;5099968;28;20745;-81
2022/04/16 04:07:33;;;;;;;2.63;2.43;;;9.60;75.10;;;;;;5095959;28;20183;-82
2022/04/16 04:09:59;;;;;;;2.90;2.70;;;9.50;75.60;;;;;;5099457;28;20638;-82
2022/04/16 04:12:25;;;;;;;2.60;2.40;;;9.40;76.50;;;;;;5103410;28;20190;-82
2022/04/16 04:14:52;;;;;;;2.83;2.60;;;9.30;77.50;;;;;;5094864;28;20179;-82
2022/04/16 04:17:17;;;;;;;2.80;2.60;;;9.50;77.10;;;;;;5093143;28;20213;-83
2022/04/16 04:19:45;;;;;;;2.80;2.53;;;9.30;77.20;;;;;;5085938;28;20211;-82
2022/04/16 04:22:15;;;;;;;2.70;2.50;;;9.30;77.60;;;;;;5091705;28;20226;-82
2022/04/16 04:24:41;;;;;;;2.90;2.70;;;9.30;78.10;;;;;;5095123;28;20213;-83
2022/04/16 04:27:08;;;;;;;2.63;2.43;;;9.20;78.10;;;;;;5081544;28;20225;-83
2022/04/16 04:29:34;;;;;;;2.60;2.40;;;9.20;78.40;;;;;;5091142;28;20187;-83
2022/04/16 04:32:01;;;;;;;3.10;2.90;;;9.30;78.00;;;;;;5096188;28;20191;-83
2022/04/16 04:34:26;;;;;;;3.03;2.73;;;9.30;77.60;;;;;;5091044;28;20187;-83
2022/04/16 04:36:52;;;;;;;3.00;2.70;;;9.30;78.10;;;;;;5093214;28;20214;-82
2022/04/16 04:39:18;;;;;;;3.80;2.90;;;9.30;77.70;;;;;;5095004;28;20208;-83
2022/04/16 04:41:44;;;;;;;2.80;2.60;;;9.50;76.90;;;;;;5096304;28;20227;-84
2022/04/16 04:44:14;;;;;;;2.77;2.50;;;9.40;76.90;;;;;;5094420;28;20203;-84
2022/04/16 04:46:41;;;;;;;3.40;3.10;;;9.50;77.00;;;;;;5097373;28;20179;-83
2022/04/16 04:49:11;;;;;;;2.70;2.50;;;9.60;76.30;;;;;;5091760;28;20278;-83
2022/04/16 04:51:40;;;;;;;2.80;2.60;;;9.70;76.90;;;;;;5093370;28;20195;-83
2022/04/16 04:54:07;;;;;;;3.00;2.80;;;9.80;75.60;;;;;;5097818;28;20183;-83
2022/04/16 04:56:33;;;;;;;2.77;2.43;;;10.00;74.40;;;;;;5102035;28;20206;-83
2022/04/16 04:58:59;;;;;;;3.13;2.80;;;10.10;74.60;;;;;;5096778;28;20183;-83
2022/04/16 05:01:25;;;;;;;2.60;2.40;;;10.30;74.00;;;;;;5094440;28;20218;-82
2022/04/16 05:03:51;;;;;;;2.87;2.67;;;10.30;73.00;;;;;;5074809;28;20584;-82
2022/04/16 05:06:17;;;;;;;2.93;2.70;;;10.40;74.30;;;;;;5096810;28;20183;-83
2022/04/16 05:08:45;;;;;;;3.40;3.10;;;10.60;73.00;;;;;;5096336;28;20198;-82
2022/04/16 05:11:12;;;;;;;2.90;2.60;;;10.70;71.60;;;;;;5085965;28;20202;-83
2022/04/16 05:13:37;;;;;;;3.20;2.90;;;10.80;71.50;;;;;;5084590;28;20187;-83
2022/04/16 05:16:03;;;;;;;3.00;2.80;;;10.90;71.30;;;;;;5105713;28;20185;-83
2022/04/16 05:18:29;;;;;;;2.90;2.70;;;11.00;70.10;;;;;;5095071;28;20188;-83
2022/04/16 05:20:55;;;;;;;3.37;3.10;;;11.00;70.50;;;;;;5099336;28;20600;-83
2022/04/16 05:23:21;;;;;;;3.10;2.90;;;10.90;69.40;;;;;;5095369;28;20224;-84
2022/04/16 05:25:46;;;;;;;3.00;2.80;;;10.90;70.00;;;;;;5090084;28;20668;-83
2022/04/16 05:28:12;;;;;;;2.87;2.67;;;11.00;70.10;;;;;;5099639;28;20217;-83
2022/04/16 05:30:44;;;;;;;3.00;2.80;;;11.10;70.20;;;;;;5087216;28;20206;-83
2022/04/16 05:34:18;;;;;;;3.07;2.87;;;11.20;70.70;;;;;;5097170;28;20194;-83
2022/04/16 05:36:02;;;;;;;3.37;3.07;;;11.30;69.40;;;;;;5087380;28;20194;-83
2022/04/16 05:38:27;;;;;;;2.90;2.70;;;11.20;70.20;;;;;;5095244;28;20257;-83
2022/04/16 05:40:53;;;;;;;3.37;3.07;;;11.40;69.40;;;;;;5086716;28;20848;-82
2022/04/16 05:43:19;;;;;;;3.57;2.83;;;11.20;68.00;;;;;;5092794;28;20244;-82
2022/04/16 05:45:44;;;;;;;3.47;2.93;;;11.20;69.10;;;;;;5082990;28;20212;-82
2022/04/16 05:48:10;;;;;;;5.63;3.20;;;11.30;70.00;;;;;;5101070;28;20264;-83
2022/04/16 05:50:37;;;;;;;3.20;2.90;;;11.30;69.50;;;;;;5103493;28;20196;-83
2022/04/16 05:53:06;;;;;;;3.00;2.70;;;11.30;69.60;;;;;;5097122;28;20186;-83
2022/04/16 05:55:32;;;;;;;6.73;3.20;;;11.30;69.20;;;;;;5084621;28;20213;-82
2022/04/16 05:57:58;;;;;;;4.97;2.80;;;11.40;69.20;;;;;;5081856;28;20197;-83
2022/04/16 06:00:24;;;;;;;3.47;3.07;;;11.40;69.10;;;;;;5093292;28;20296;-84
2022/04/16 06:02:50;;;;;;;3.20;2.93;;;11.60;70.70;;;;;;5087914;28;20261;-82
2022/04/16 06:05:16;;;;;;;3.57;3.07;;;11.60;69.10;;;;;;5091174;28;20188;-84
2022/04/16 06:07:42;;;;;;;3.30;3.00;;;11.60;69.10;;;;;;5096202;28;20190;-84
2022/04/16 06:10:08;;;;;;;3.03;2.83;;;11.60;69.50;;;;;;5094475;28;20220;-85
2022/04/16 06:12:33;;;;;;;2.80;2.60;;;11.70;69.20;;;;;;5109736;28;20190;-83
2022/04/16 06:15:00;;;;;;;2.87;2.67;;;11.70;68.40;;;;;;5089402;28;20225;-83
2022/04/16 06:17:26;;;;;;;6.00;3.13;;;11.60;68.60;;;;;;5093821;28;20192;-84
2022/04/16 06:19:51;;;;;;;3.40;3.13;;;11.60;69.10;;;;;;5081543;28;20274;-84
2022/04/16 06:22:17;;;;;;;3.50;3.20;;;11.60;68.50;;;;;;5093263;28;20270;-84
2022/04/16 06:24:43;;;;;;;4.03;3.20;;;11.50;68.40;;;;;;5087424;28;20194;-83
2022/04/16 06:27:09;;;;;;;3.57;3.27;;;11.50;68.60;;;;;;5099950;28;20202;-85
2022/04/16 06:29:35;;;;;;;3.47;3.17;;;11.30;69.40;;;;;;5096415;28;20202;-84
2022/04/16 06:32:00;;;;;;;3.97;3.10;;;11.30;69.70;;;;;;5097327;28;20179;-84
2022/04/16 06:34:27;;;;;;;3.33;3.03;;;11.40;69.60;;;;;;5085332;28;20895;-85
2022/04/16 06:36:53;;;;;;;4.43;3.07;;;11.50;68.80;;;;;;5083765;28;20228;-84
2022/04/16 06:39:19;;;;;;;3.97;3.37;;;11.50;69.20;;;;;;5102276;28;20178;-85
2022/04/16 06:41:45;;;;;;;3.60;3.30;;;11.60;68.70;;;;;;5063872;28;20358;-84
2022/04/16 06:44:10;;;;;;;6.23;3.40;;;11.50;68.90;;;;;;5080735;28;20193;-86
2022/04/16 06:46:36;;;;;;;3.53;3.23;;;11.50;68.90;;;;;;5101172;28;20176;-85
2022/04/16 06:49:02;;;;;;;3.40;3.10;;;11.50;69.80;;;;;;5093036;28;20184;-84
2022/04/16 06:51:29;;;;;;;3.30;2.80;;;11.70;70.00;;;;;;5070115;28;20204;-83
2022/04/16 06:53:55;;;;;;;4.60;4.03;;;11.70;68.60;;;;;;5083668;28;20218;-83
2022/04/16 06:56:21;;;;;;;5.20;3.70;;;11.80;67.80;;;;;;5092107;28;20233;-84
2022/04/16 06:58:46;;;;;;;4.20;3.80;;;11.60;69.40;;;;;;5095594;28;20188;-83
2022/04/16 07:01:12;;;;;;;4.20;3.80;;;11.70;70.20;;;;;;5082759;28;20217;-85
2022/04/16 07:03:41;;;;;;;3.60;3.30;;;11.80;69.80;;;;;;5089673;28;20582;-84
2022/04/16 07:06:06;;;;;;;3.83;3.50;;;11.80;69.90;;;;;;5103029;28;20184;-83
2022/04/16 07:08:32;;;;;;;3.90;3.60;;;12.00;69.50;;;;;;5114797;28;20204;-84
2022/04/16 07:10:58;;;;;;;4.37;3.97;;;12.10;69.10;;;;;;5094925;28;20829;-82
2022/04/16 07:13:23;;;;;;;4.70;4.17;;;12.20;68.60;;;;;;5081719;28;20198;-84
2022/04/16 07:15:49;;;;;;;9.40;5.07;;;12.10;68.60;;;;;;5096121;28;20190;-84
2022/04/16 07:18:15;;;;;;;4.30;4.00;;;12.10;69.10;;;;;;5082284;28;20209;-84
2022/04/16 07:20:42;;;;;;;4.10;3.80;;;12.20;68.80;;;;;;5082217;28;20259;-84
2022/04/16 07:23:08;;;;;;;4.40;4.10;;;12.20;69.30;;;;;;5099173;28;20236;-84
2022/04/16 07:25:34;;;;;;;4.60;4.20;;;12.30;68.60;;;;;;5078318;28;20210;-83
2022/04/16 07:28:00;;;;;;;5.27;4.77;;;12.30;68.60;;;;;;5091525;28;20576;-85
2022/04/16 07:30:27;;;;;;;4.60;4.20;;;12.40;67.80;;;;;;5100632;28;20197;-83
2022/04/16 07:32:53;;;;;;;5.53;5.03;;;12.50;68.20;;;;;;5090355;28;20189;-82
2022/04/16 07:35:19;;;;;;;5.10;4.47;;;12.60;67.40;;;;;;5098872;28;20219;-83
2022/04/16 07:37:46;;;;;;;5.10;4.70;;;12.70;67.10;;;;;;5099395;28;20188;-83
2022/04/16 07:40:12;;;;;;;4.83;4.43;;;12.60;66.90;;;;;;5092130;28;20218;-83
2022/04/16 07:42:38;;;;;;;5.20;4.70;;;12.70;67.60;;;;;;5099072;28;20221;-83
2022/04/16 07:45:05;;;;;;;5.57;4.97;;;12.50;67.40;;;;;;5096269;28;20199;-83
2022/04/16 07:47:31;;;;;;;6.47;4.70;;;12.50;68.10;;;;;;5101098;28;20207;-83
2022/04/16 07:49:58;;;;;;;5.63;5.03;;;12.70;68.60;;;;;;5097170;28;20221;-84
2022/04/16 07:52:25;;;;;;;5.10;4.63;;;12.70;68.10;;;;;;5082360;28;20198;-84
2022/04/16 07:54:52;;;;;;;5.73;5.33;;;12.80;67.80;;;;;;5088632;28;20220;-82
2022/04/16 07:57:17;;;;;;;5.50;5.03;;;12.70;68.60;;;;;;5065316;28;20777;-84
2022/04/16 07:59:43;;;;;;;6.83;5.20;;;12.60;68.40;;;;;;5082214;28;20348;-86
2022/04/16 08:02:09;;;;;;;8.17;5.70;;;12.70;68.50;;;;;;5107167;28;20286;-83
2022/04/16 08:04:35;;;;;;;6.07;4.70;;;12.70;68.80;;;;;;5094018;28;20376;-84
2022/04/16 08:07:00;;;;;;;5.63;5.03;;;12.80;68.80;;;;;;5087532;28;20185;-87
2022/04/16 08:09:26;;;;;;;5.80;5.30;;;12.90;68.30;;;;;;5082472;28;20283;-83
2022/04/16 08:11:51;;;;;;;5.80;5.30;;;12.70;68.90;;;;;;5084152;28;20183;-86
2022/04/16 08:14:17;;;;;;;10.10;5.20;;;12.80;68.90;;;;;;5092945;28;20195;-84
2022/04/16 08:16:43;;;;;;;6.37;5.70;;;12.70;69.20;;;;;;5089030;28;20207;-86
2022/04/16 08:19:08;;;;;;;6.27;5.67;;;12.70;69.20;;;;;;5085539;28;20233;-83
2022/04/16 08:21:34;;;;;;;5.40;4.90;;;12.80;69.60;;;;;;5092069;28;20210;-84
2022/04/16 08:24:12;;;;;;;6.57;5.60;;;12.90;68.50;;;;;;5074238;28;20290;-83
2022/04/16 08:26:39;;;;;;;5.93;5.43;;;12.90;68.80;;;;;;5088477;28;20240;-85
2022/04/16 08:29:04;;;;;;;6.00;5.37;;;12.90;68.80;;;;;;5089930;28;20549;-83
2022/04/16 08:31:30;;;;;;;11.30;5.83;;;13.10;68.30;;;;;;5093821;28;20209;-83
2022/04/16 08:33:56;;;;;;;10.27;5.13;;;13.20;68.10;;;;;;5079598;28;20218;-82
2022/04/16 08:36:22;;;;;;;6.07;5.53;;;13.30;68.10;;;;;;5095438;28;20185;-83
2022/04/16 08:38:47;;;;;;;7.00;5.20;;;13.50;66.70;;;;;;5085451;28;20609;-82
2022/04/16 08:41:13;;;;;;;6.10;5.60;;;13.50;66.30;;;;;;5090914;28;20235;-82
2022/04/16 08:43:42;;;;;;;9.23;6.00;;;13.50;66.80;;;;;;5092892;28;20221;-82
2022/04/16 08:46:08;;;;;;;5.53;5.10;;;13.60;66.30;;;;;;5092035;28;20783;-82
2022/04/16 08:48:35;;;;;;;7.90;5.53;;;13.80;64.90;;;;;;5090180;28;20222;-82
2022/04/16 08:51:02;;;;;;;5.67;5.07;;;13.90;64.40;;;;;;5090104;28;20675;-82
2022/04/16 08:53:27;;;;;;;6.23;5.63;;;14.00;63.80;;;;;;5087756;28;20207;-82
2022/04/16 08:55:53;;;;;;;8.40;5.60;;;13.90;63.80;;;;;;5097838;28;20194;-82
2022/04/16 08:58:19;;;;;;;6.47;5.27;;;13.80;63.40;;;;;;5087811;28;20221;-82
2022/04/16 09:00:45;;;;;;;5.93;4.93;;;13.80;63.50;;;;;;5097549;28;20217;-81
2022/04/16 09:03:11;;;;;;;5.70;5.20;;;14.00;63.60;;;;;;5090270;28;20232;-81
2022/04/16 09:05:37;;;;;;;5.70;5.07;;;14.10;62.90;;;;;;5083803;28;20202;-82
2022/04/16 09:08:04;;;;;;;5.40;4.90;;;14.10;62.40;;;;;;5087081;28;20183;-81
2022/04/16 09:10:32;;;;;;;5.33;4.83;;;14.10;62.30;;;;;;5088793;28;20219;-81
2022/04/16 09:12:59;;;;;;;10.13;5.53;;;14.40;61.00;;;;;;5096024;28;20251;-81
2022/04/16 09:15:26;;;;;;;5.33;4.70;;;14.50;60.20;;;;;;5090752;28;20222;-81
2022/04/16 09:18:06;;;;;;;5.97;5.13;;;14.50;58.90;;;;;;5096283;28;20197;-81
2022/04/16 09:20:37;;;;;;;5.30;4.90;;;14.20;59.50;;;;;;5090209;28;20443;-80
2022/04/16 09:23:15;;;;;;;6.23;5.63;;;13.70;60.90;;;;;;5093987;28;20209;-82
2022/04/16 09:25:42;;;;;;;5.40;4.90;;;13.80;60.40;;;;;;5075411;28;20871;-81
2022/04/16 09:28:08;;;;;;;8.40;6.00;;;14.00;60.40;;;;;;5070139;28;20233;-83
2022/04/16 09:30:34;;;;;;;6.47;5.87;;;14.20;60.10;;;;;;5093955;28;20207;-82
2022/04/16 09:33:01;;;;;;;7.87;5.37;;;14.30;60.30;;;;;;5091789;28;20281;-82
2022/04/16 09:35:38;;;;;;;6.20;5.60;;;14.60;58.10;;;;;;5086287;28;20194;-83
2022/04/16 09:38:07;;;;;;;5.90;5.40;;;14.70;57.70;;;;;;5090912;28;20183;-83
2022/04/16 09:40:36;;;;;;;6.50;5.90;;;14.80;57.10;;;;;;5092716;28;20280;-85
2022/04/16 09:43:04;;;;;;;11.00;6.00;;;15.20;57.10;;;;;;5095555;28;20211;-83
2022/04/16 09:45:31;;;;;;;6.50;5.90;;;15.30;55.60;;;;;;5089842;28;20191;-82
2022/04/16 09:47:58;;;;;;;5.90;5.40;;;15.30;55.70;;;;;;5088071;28;20221;-82
2022/04/16 09:50:31;;;;;;;5.53;5.13;;;15.40;55.40;;;;;;5088509;28;20210;-83
2022/04/16 09:53:02;;;;;;;6.03;5.00;;;15.60;54.20;;;;;;5092467;28;20792;-84
2022/04/16 09:55:28;;;;;;;7.40;5.53;;;15.70;52.80;;;;;;5097573;28;20202;-81
2022/04/16 09:58:02;;;;;;;5.77;5.27;;;15.90;52.90;;;;;;5101632;28;20196;-81
2022/04/16 10:00:30;;;;;;;5.47;4.97;;;16.00;52.00;;;;;;5093035;28;20213;-82
2022/04/16 10:02:56;;;;;;;5.40;5.00;;;16.20;50.70;;;;;;5095766;28;20263;-82
2022/04/16 10:05:23;;;;;;;8.70;5.87;;;16.00;51.30;;;;;;5094316;28;20188;-83
2022/04/16 10:07:52;;;;;;;8.63;5.67;;;16.20;51.30;;;;;;5097554;28;20290;-83
2022/04/16 10:10:25;;;;;;;8.70;6.03;;;16.20;50.40;;;;;;5099619;28;20294;-82
2022/04/16 10:13:05;;;;;;;6.03;5.53;;;16.20;50.80;;;;;;5097962;28;20189;-82
2022/04/16 10:16:02;;;;;;;10.33;5.33;;;16.30;49.70;;;;;;5092390;28;20636;-81
2022/04/16 10:18:28;;;;;;;6.17;5.57;;;16.40;50.00;;;;;;5090082;28;20186;-82
2022/04/16 10:20:54;;;;;;;6.53;5.87;;;16.50;50.00;;;;;;5088714;28;20294;-82
2022/04/16 10:23:39;;;;;;;7.10;6.30;;;16.40;49.50;;;;;;5088560;28;20662;-82
2022/04/16 10:26:12;;;;;;;12.70;6.20;;;16.60;48.10;;;;;;5087719;28;20183;-82
2022/04/16 10:28:42;;;;;;;6.33;5.83;;;16.80;47.10;;;;;;5094247;28;20191;-82
2022/04/16 10:31:25;;;;;;;5.90;4.97;;;16.90;46.10;;;;;;5091121;28;20282;-82
2022/04/16 10:34:10;;;;;;;5.33;4.83;;;17.40;45.50;;;;;;5097532;28;20558;-82
2022/04/16 10:36:40;;;;;;;5.10;4.67;;;17.00;46.10;;;;;;5100930;28;20258;-82
2022/04/16 10:39:17;;;;;;;4.37;4.07;;;16.80;47.20;;;;;;5097612;28;20200;-83
2022/04/16 10:42:02;;;;;;;4.50;4.10;;;16.70;45.40;;;;;;5083745;28;20240;-82
2022/04/16 10:44:45;;;;;;;4.50;4.00;;;16.90;44.50;;;;;;5099627;28;20269;-83
2022/04/16 10:47:15;;;;;;;5.67;4.90;;;17.00;44.40;;;;;;5078865;28;20241;-85
2022/04/16 10:49:43;;;;;;;4.57;4.17;;;17.20;44.30;;;;;;5093046;28;20184;-82
2022/04/16 10:52:21;;;;;;;4.40;4.00;;;17.60;43.30;;;;;;5100353;28;20272;-84
2022/04/16 10:54:48;;;;;;;4.17;3.80;;;18.20;42.60;;;;;;5085446;28;20190;-86
2022/04/16 10:57:21;;;;;;;5.97;4.07;;;18.80;39.60;;;;;;5083683;28;20191;-85
2022/04/16 10:59:47;;;;;;;4.20;3.80;;;18.80;39.30;;;;;;5072633;28;20237;-83
2022/04/16 11:02:26;;;;;;;4.10;3.70;;;18.90;39.80;;;;;;5097858;28;20221;-84
2022/04/16 11:04:59;;;;;;;3.45;3.15;;;19.00;39.10;;;;;;5101797;28;20197;-81
2022/04/16 11:07:30;;;;;;;3.90;2.92;;;19.10;37.20;;;;;;5092785;28;20191;-83
2022/04/16 11:09:57;;;;;;;2.78;2.58;;;19.50;36.70;;;;;;5095615;28;20305;-83
2022/04/16 11:12:23;;;;;;;3.20;2.95;;;19.50;36.70;;;;;;5095872;28;20175;-83
2022/04/16 11:14:50;;;;;;;5.78;2.70;;;19.60;37.40;;;;;;5075481;28;20257;-83
2022/04/16 11:17:17;;;;;;;3.92;3.63;;;19.20;36.60;;;;;;5089454;28;20184;-82
2022/04/16 11:19:44;;;;;;;3.77;3.47;;;18.90;36.80;;;;;;5096688;28;20181;-83
2022/04/16 11:22:11;;;;;;;3.10;2.90;;;18.70;37.20;;;;;;5092787;28;20184;-83
2022/04/16 11:24:37;;;;;;;3.08;2.88;;;18.40;37.60;;;;;;5074765;28;20186;-83
2022/04/16 11:35:23;;;;;;;5.37;3.40;;;18.80;37.10;;;;;;5092926;28;20220;-83
2022/04/16 11:37:56;;;;;;;5.60;3.63;;;18.50;37.60;;;;;;5094762;28;20218;-82
2022/04/16 11:40:22;;;;;;;4.50;4.10;;;18.10;38.20;;;;;;5099405;28;20765;-82
2022/04/16 11:42:49;;;;;;;4.53;3.97;;;17.90;39.30;;;;;;5102542;28;20209;-81
2022/04/16 11:45:15;;;;;;;6.00;3.67;;;17.90;38.50;;;;;;5081660;28;20216;-81
2022/04/16 11:47:41;;;;;;;3.60;3.30;;;17.60;37.90;;;;;;5095493;28;20707;-81
2022/04/16 11:50:10;;;;;;;3.70;3.40;;;17.60;38.40;;;;;;5089266;28;20288;-82
2022/04/16 11:52:37;;;;;;;3.80;3.50;;;17.50;39.30;;;;;;5090982;28;20636;-81
2022/04/16 11:55:07;;;;;;;4.17;3.17;;;17.40;39.30;;;;;;5092315;28;20178;-82
2022/04/16 11:57:34;;;;;;;3.90;3.60;;;17.90;38.60;;;;;;5089080;28;20260;-83
2022/04/16 12:00:08;;;;;;;3.37;3.07;;;18.50;37.80;;;;;;5093596;28;20221;-82
2022/04/16 12:02:36;;;;;;;3.50;3.20;;;19.10;36.40;;;;;;5086975;28;20257;-82
2022/04/16 12:05:10;;;;;;;3.40;3.10;;;19.60;34.60;;;;;;5086670;28;20185;-81
2022/04/16 12:07:37;;;;;;;3.30;3.10;;;19.40;35.10;;;;;;5072288;28;20181;-82
2022/04/16 12:10:07;;;;;;;2.92;2.72;;;19.50;34.10;;;;;;5091979;28;20207;-82
2022/04/16 12:12:49;;;;;;;3.88;3.40;;;20.10;34.60;;;;;;5090855;28;20197;-83
2022/04/16 12:15:31;;;;;;;3.42;3.13;;;20.50;34.10;;;;;;5093519;28;20786;-82
2022/04/16 12:18:08;;;;;;;4.75;3.33;;;20.70;33.50;;;;;;5086065;28;20659;-83
2022/04/16 12:20:33;;;;;;;3.35;3.05;;;20.70;33.10;;;;;;5078439;28;20286;-82
2022/04/16 12:23:02;;;;;;;2.85;2.60;;;20.10;32.90;;;;;;5085790;28;20363;-82
2022/04/16 12:25:29;;;;;;;2.78;2.58;;;20.20;30.50;;;;;;5085337;28;20569;-83
2022/04/16 12:27:57;;;;;;;3.25;3.03;;;20.30;31.50;;;;;;5090826;28;20195;-82
2022/04/16 12:30:24;;;;;;;3.25;2.95;;;20.30;32.40;;;;;;5088376;28;20206;-84
2022/04/16 12:33:02;;;;;;;3.00;2.80;;;20.50;32.60;;;;;;5085816;28;20202;-82
2022/04/16 12:35:29;;;;;;;3.40;3.10;;;20.50;31.30;;;;;;5093214;28;20258;-82
2022/04/16 12:37:57;;;;;;;3.13;2.92;;;20.20;31.60;;;;;;5089844;28;20183;-83
2022/04/16 12:40:23;;;;;;;8.95;8.07;;;20.40;32.00;;;;;;5093461;28;20222;-83
2022/04/16 12:42:50;;;;;;;3.45;3.15;;;20.60;31.30;;;;;;5090339;28;20199;-82
2022/04/16 12:45:16;;;;;;;3.13;2.92;;;20.90;30.00;;;;;;5104182;28;20190;-83
2022/04/16 12:47:42;;;;;;;3.60;3.30;;;20.70;30.70;;;;;;5092604;28;20187;-83
2022/04/16 12:50:09;;;;;;;3.53;3.25;;;21.10;31.30;;;;;;5097038;28;20337;-82
2022/04/16 12:52:35;;;;;;;3.45;3.17;;;20.90;31.10;;;;;;5091167;28;20201;-83
2022/04/16 12:55:00;;;;;;;5.63;3.55;;;20.50;30.90;;;;;;5091019;28;20286;-83
2022/04/16 12:57:26;;;;;;;5.25;3.50;;;20.20;31.00;;;;;;5073583;28;20229;-82
2022/04/16 12:59:52;;;;;;;3.63;3.33;;;20.00;30.20;;;;;;5088006;28;20784;-83
2022/04/16 13:02:18;;;;;;;5.10;3.30;;;20.20;30.50;;;;;;5091102;28;20213;-82
2022/04/16 13:04:44;;;;;;;3.47;3.17;;;20.20;31.30;;;;;;5088873;28;20178;-82
2022/04/16 13:07:10;;;;;;;3.72;2.70;;;20.60;29.90;;;;;;5080487;28;20195;-83
2022/04/16 13:09:35;;;;;;;5.43;3.20;;;21.10;28.70;;;;;;5096088;28;20233;-84